createdAt,value
2017-12-22T00:00:13.378Z,28.40
2017-12-22T00:00:48.759Z,27.90
2017-12-22T00:01:24.277Z,29.20
2017-12-22T00:01:59.786Z,28.60
2017-12-22T00:02:35.268Z,28.10
2017-12-22T00:03:10.773Z,29.90
2017-12-22T00:03:46.194Z,29.30
2017-12-22T00:04:21.318Z,30.30
2017-12-22T00:04:56.817Z,28.70
2017-12-22T00:05:32.133Z,28.20
2017-12-22T00:06:07.605Z,29.40
2017-12-22T00:06:42.905Z,29.30
2017-12-22T00:07:18.521Z,29.10
2017-12-22T00:07:53.598Z,28.20
2017-12-22T00:08:28.803Z,28.00
2017-12-22T00:09:04.028Z,30.00
2017-12-22T00:09:39.438Z,31.00
2017-12-22T00:10:15.106Z,30.90
2017-12-22T00:10:50.828Z,30.70
2017-12-22T00:11:26.128Z,30.60
2017-12-22T00:12:01.534Z,29.20
2017-12-22T00:12:36.546Z,30.10
2017-12-22T00:13:11.919Z,29.20
2017-12-22T00:13:47.338Z,30.00
2017-12-22T00:14:22.746Z,29.40
2017-12-22T00:14:58.462Z,29.70
2017-12-22T00:15:33.643Z,29.80
2017-12-22T00:16:08.657Z,29.10
2017-12-22T00:16:43.936Z,28.70
2017-12-22T00:17:19.336Z,27.40
2017-12-22T00:17:54.522Z,28.00
2017-12-22T00:18:30.118Z,29.70
2017-12-22T00:19:05.643Z,28.70
2017-12-22T00:19:41.144Z,29.60
2017-12-22T00:20:16.874Z,27.30
2017-12-22T00:20:52.161Z,26.30
2017-12-22T00:21:27.573Z,25.70
2017-12-22T00:22:02.850Z,26.20
2017-12-22T00:22:38.455Z,26.60
2017-12-22T00:23:13.840Z,25.80
2017-12-22T00:23:49.340Z,26.30
2017-12-22T00:24:24.744Z,27.00
2017-12-22T00:24:59.868Z,25.40
2017-12-22T00:25:35.075Z,25.80
2017-12-22T00:26:10.455Z,26.10
2017-12-22T00:26:45.960Z,26.00
2017-12-22T00:27:21.346Z,25.30
2017-12-22T00:27:56.655Z,25.30
2017-12-22T00:28:31.935Z,25.80
2017-12-22T00:29:07.343Z,26.10
2017-12-22T00:29:42.760Z,25.90
2017-12-22T00:30:18.180Z,26.30
2017-12-22T00:30:53.788Z,24.90
2017-12-22T00:31:29.166Z,25.30
2017-12-22T00:32:04.469Z,27.10
2017-12-22T00:32:40.060Z,26.00
2017-12-22T00:33:15.461Z,26.00
2017-12-22T00:33:50.735Z,25.30
2017-12-22T00:34:26.347Z,24.50
2017-12-22T00:35:01.457Z,24.50
2017-12-22T00:35:37.050Z,24.80
2017-12-22T00:36:12.660Z,26.20
2017-12-22T00:36:48.139Z,26.50
2017-12-22T00:37:23.344Z,26.10
2017-12-22T00:37:58.915Z,24.60
2017-12-22T00:38:34.137Z,24.70
2017-12-22T00:39:09.410Z,24.20
2017-12-22T00:39:44.812Z,24.20
2017-12-22T00:40:20.087Z,24.70
2017-12-22T00:40:55.430Z,25.90
2017-12-22T00:41:30.938Z,26.60
2017-12-22T00:42:06.621Z,24.90
2017-12-22T00:42:41.820Z,25.00
2017-12-22T00:43:17.442Z,25.40
2017-12-22T00:43:52.950Z,25.30
2017-12-22T00:44:28.229Z,25.80
2017-12-22T00:45:03.695Z,26.00
2017-12-22T00:45:39.060Z,26.00
2017-12-22T00:46:14.398Z,25.20
2017-12-22T00:46:49.915Z,24.90
2017-12-22T00:47:25.282Z,24.20
2017-12-22T00:48:00.680Z,24.50
2017-12-22T00:48:35.956Z,24.40
2017-12-22T00:49:11.372Z,24.40
2017-12-22T00:49:46.947Z,26.50
2017-12-22T00:50:22.052Z,26.30
2017-12-22T00:50:57.830Z,25.50
2017-12-22T00:51:33.262Z,25.60
2017-12-22T00:52:08.589Z,25.60
2017-12-22T00:52:43.848Z,24.20
2017-12-22T00:53:19.265Z,24.40
2017-12-22T00:53:54.346Z,25.70
2017-12-22T00:54:29.489Z,24.40
2017-12-22T00:55:04.867Z,23.60
2017-12-22T00:55:40.361Z,24.40
2017-12-22T00:56:15.846Z,25.70
2017-12-22T00:56:51.073Z,24.10
2017-12-22T00:57:26.193Z,24.60
2017-12-22T00:58:01.387Z,25.40
2017-12-22T00:58:36.793Z,25.60
2017-12-22T00:59:12.374Z,25.60
2017-12-22T00:59:47.779Z,25.60
2017-12-22T01:00:23.257Z,25.70
2017-12-22T01:00:58.457Z,25.30
2017-12-22T01:01:33.947Z,24.60
2017-12-22T01:02:09.587Z,24.90
2017-12-22T01:02:44.859Z,24.80
2017-12-22T01:03:20.365Z,24.40
2017-12-22T01:03:56.185Z,24.50
2017-12-22T01:04:31.442Z,24.70
2017-12-22T01:05:07.340Z,25.70
2017-12-22T01:05:42.618Z,24.80
2017-12-22T01:06:18.029Z,24.40
2017-12-22T01:06:53.318Z,25.10
2017-12-22T01:07:28.575Z,26.00
2017-12-22T01:08:04.066Z,25.90
2017-12-22T01:08:39.473Z,26.50
2017-12-22T01:09:14.876Z,24.20
2017-12-22T01:09:49.962Z,24.90
2017-12-22T01:10:25.362Z,25.10
2017-12-22T01:11:00.937Z,25.00
2017-12-22T01:11:36.450Z,26.10
2017-12-22T01:12:11.626Z,25.50
2017-12-22T01:12:46.953Z,26.40
2017-12-22T01:13:22.136Z,25.90
2017-12-22T01:13:57.240Z,24.10
2017-12-22T01:14:32.949Z,25.20
2017-12-22T01:15:08.443Z,26.20
2017-12-22T01:15:43.949Z,25.80
2017-12-22T01:16:19.528Z,25.20
2017-12-22T01:16:54.729Z,23.90
2017-12-22T01:17:29.956Z,25.00
2017-12-22T01:18:05.543Z,25.70
2017-12-22T01:18:40.919Z,25.10
2017-12-22T01:19:16.225Z,25.10
2017-12-22T01:19:51.631Z,26.40
2017-12-22T01:20:26.983Z,24.80
2017-12-22T01:21:02.396Z,23.10
2017-12-22T01:21:37.677Z,24.30
2017-12-22T01:22:12.879Z,22.60
2017-12-22T01:22:47.959Z,24.10
2017-12-22T01:23:23.796Z,25.60
2017-12-22T01:23:59.486Z,25.00
2017-12-22T01:24:34.995Z,24.00
2017-12-22T01:25:10.274Z,22.60
2017-12-22T01:25:45.686Z,26.10
2017-12-22T01:26:21.093Z,28.10
2017-12-22T01:26:56.462Z,26.50
2017-12-22T01:27:31.971Z,25.30
2017-12-22T01:28:07.458Z,24.80
2017-12-22T01:28:42.785Z,23.40
2017-12-22T01:29:18.536Z,24.70
2017-12-22T01:29:53.847Z,24.00
2017-12-22T01:30:29.026Z,26.00
2017-12-22T01:31:04.234Z,25.80
2017-12-22T01:31:39.842Z,24.80
2017-12-22T01:32:15.117Z,25.60
2017-12-22T01:32:50.415Z,26.70
2017-12-22T01:33:25.700Z,26.00
2017-12-22T01:34:01.240Z,26.00
2017-12-22T01:34:36.723Z,25.30
2017-12-22T01:35:12.128Z,24.40
2017-12-22T01:35:47.505Z,23.30
2017-12-22T01:36:22.906Z,25.10
2017-12-22T01:36:58.113Z,26.40
2017-12-22T01:37:33.494Z,25.60
2017-12-22T01:38:08.796Z,26.10
2017-12-22T01:38:44.381Z,25.60
2017-12-22T01:39:20.022Z,24.90
2017-12-22T01:39:55.304Z,24.90
2017-12-22T01:40:30.603Z,24.30
2017-12-22T01:41:06.175Z,24.60
2017-12-22T01:41:41.283Z,25.50
2017-12-22T01:42:16.798Z,26.60
2017-12-22T01:42:52.252Z,25.70
2017-12-22T01:43:27.493Z,26.00
2017-12-22T01:44:03.066Z,26.30
2017-12-22T01:44:38.601Z,26.90
2017-12-22T01:45:13.876Z,27.10
2017-12-22T01:45:49.179Z,26.20
2017-12-22T01:46:24.646Z,25.60
2017-12-22T01:46:59.845Z,27.00
2017-12-22T01:47:35.328Z,26.60
2017-12-22T01:48:10.828Z,25.60
2017-12-22T01:48:46.231Z,26.80
2017-12-22T01:49:21.431Z,26.30
2017-12-22T01:49:56.766Z,26.10
2017-12-22T01:50:32.041Z,25.70
2017-12-22T01:51:07.641Z,26.70
2017-12-22T01:51:43.115Z,26.20
2017-12-22T01:52:18.416Z,27.00
2017-12-22T01:52:53.899Z,26.20
2017-12-22T01:53:29.199Z,26.00
2017-12-22T01:54:04.711Z,26.80
2017-12-22T01:54:40.297Z,26.60
2017-12-22T01:55:15.525Z,26.80
2017-12-22T01:55:51.007Z,27.20
2017-12-22T01:56:26.403Z,28.00
2017-12-22T01:57:01.583Z,28.90
2017-12-22T01:57:36.988Z,29.00
2017-12-22T01:58:12.070Z,28.40
2017-12-22T01:58:47.271Z,27.30
2017-12-22T01:59:22.574Z,28.60
2017-12-22T01:59:57.854Z,28.00
2017-12-22T02:00:33.407Z,26.30
2017-12-22T02:01:08.992Z,26.50
2017-12-22T02:01:44.493Z,27.40
2017-12-22T02:02:19.880Z,29.00
2017-12-22T02:02:55.278Z,28.10
2017-12-22T02:03:30.459Z,27.10
2017-12-22T02:04:05.568Z,27.80
2017-12-22T02:04:40.892Z,28.20
2017-12-22T02:05:16.296Z,28.60
2017-12-22T02:05:51.430Z,27.70
2017-12-22T02:06:26.817Z,28.10
2017-12-22T02:07:02.317Z,29.00
2017-12-22T02:07:37.807Z,28.30
2017-12-22T02:08:13.202Z,27.20
2017-12-22T02:08:48.487Z,27.30
2017-12-22T02:09:23.898Z,28.90
2017-12-22T02:09:59.176Z,30.40
2017-12-22T02:10:34.519Z,30.00
2017-12-22T02:11:10.253Z,28.90
2017-12-22T02:11:45.730Z,30.20
2017-12-22T02:12:21.035Z,29.30
2017-12-22T02:12:56.508Z,29.50
2017-12-22T02:13:31.926Z,30.30
2017-12-22T02:14:07.100Z,29.40
2017-12-22T02:14:42.610Z,29.50
2017-12-22T02:15:17.894Z,30.30
2017-12-22T02:15:53.108Z,29.80
2017-12-22T02:16:28.346Z,29.70
2017-12-22T02:17:03.727Z,29.50
2017-12-22T02:17:39.035Z,30.20
2017-12-22T02:18:14.745Z,31.00
2017-12-22T02:18:49.864Z,31.40
2017-12-22T02:19:25.056Z,29.80
2017-12-22T02:20:00.664Z,29.60
2017-12-22T02:20:35.877Z,28.50
2017-12-22T02:21:11.290Z,30.50
2017-12-22T02:21:46.780Z,31.80
2017-12-22T02:22:22.270Z,31.60
2017-12-22T02:22:57.884Z,30.90
2017-12-22T02:23:33.172Z,29.80
2017-12-22T02:24:08.378Z,29.90
2017-12-22T02:24:43.678Z,31.00
2017-12-22T02:25:19.190Z,30.50
2017-12-22T02:25:54.585Z,29.70
2017-12-22T02:26:30.005Z,28.60
2017-12-22T02:27:05.573Z,29.90
2017-12-22T02:27:40.875Z,32.60
2017-12-22T02:28:16.351Z,35.00
2017-12-22T02:28:51.531Z,31.50
2017-12-22T02:29:26.648Z,29.10
2017-12-22T02:30:02.258Z,28.90
2017-12-22T02:30:37.682Z,31.10
2017-12-22T02:31:13.076Z,31.60
2017-12-22T02:31:48.573Z,31.60
2017-12-22T02:32:24.106Z,31.00
2017-12-22T02:32:59.632Z,30.80
2017-12-22T02:33:35.044Z,31.00
2017-12-22T02:34:11.516Z,31.60
2017-12-22T02:34:46.923Z,32.90
2017-12-22T02:35:22.314Z,33.70
2017-12-22T02:35:57.722Z,31.50
2017-12-22T02:36:33.216Z,30.30
2017-12-22T02:37:08.727Z,30.90
2017-12-22T02:37:44.028Z,31.00
2017-12-22T02:38:19.064Z,31.60
2017-12-22T02:38:54.484Z,31.80
2017-12-22T02:39:30.073Z,33.10
2017-12-22T02:40:05.673Z,31.60
2017-12-22T02:40:41.056Z,29.40
2017-12-22T02:41:16.357Z,29.80
2017-12-22T02:41:51.544Z,29.80
2017-12-22T02:42:26.883Z,30.90
2017-12-22T02:43:02.549Z,32.70
2017-12-22T02:43:37.758Z,33.20
2017-12-22T02:44:13.266Z,33.80
2017-12-22T02:44:48.454Z,32.70
2017-12-22T02:45:23.760Z,31.60
2017-12-22T02:45:58.953Z,33.60
2017-12-22T02:46:34.779Z,33.70
2017-12-22T02:47:10.267Z,33.50
2017-12-22T02:47:45.896Z,33.30
2017-12-22T02:48:21.477Z,32.30
2017-12-22T02:48:56.983Z,33.00
2017-12-22T02:49:32.094Z,34.60
2017-12-22T02:50:07.685Z,33.60
2017-12-22T02:50:42.999Z,32.50
2017-12-22T02:51:18.288Z,32.20
2017-12-22T02:51:53.703Z,30.50
2017-12-22T02:52:29.283Z,31.30
2017-12-22T02:53:04.814Z,31.20
2017-12-22T02:53:39.899Z,30.50
2017-12-22T02:54:15.108Z,32.90
2017-12-22T02:54:50.649Z,32.60
2017-12-22T02:55:26.232Z,34.60
2017-12-22T02:56:01.742Z,32.40
2017-12-22T02:56:37.219Z,32.20
2017-12-22T02:57:12.638Z,32.40
2017-12-22T02:57:48.394Z,31.60
2017-12-22T02:58:23.633Z,32.50
2017-12-22T02:58:58.919Z,30.90
2017-12-22T02:59:34.379Z,32.50
2017-12-22T03:00:09.903Z,33.00
2017-12-22T03:00:45.482Z,33.30
2017-12-22T03:01:20.991Z,33.20
2017-12-22T03:01:56.076Z,32.20
2017-12-22T03:02:31.683Z,32.80
2017-12-22T03:03:06.795Z,33.50
2017-12-22T03:03:42.296Z,35.70
2017-12-22T03:04:18.079Z,35.20
2017-12-22T03:04:53.684Z,35.60
2017-12-22T03:05:28.976Z,33.30
2017-12-22T03:06:04.391Z,33.00
2017-12-22T03:06:39.532Z,32.90
2017-12-22T03:07:14.721Z,34.00
2017-12-22T03:07:50.154Z,34.20
2017-12-22T03:08:25.338Z,34.80
2017-12-22T03:09:00.642Z,34.90
2017-12-22T03:09:35.825Z,34.00
2017-12-22T03:10:11.026Z,33.20
2017-12-22T03:10:46.811Z,34.60
2017-12-22T03:11:22.023Z,33.90
2017-12-22T03:11:57.236Z,33.00
2017-12-22T03:12:32.623Z,33.90
2017-12-22T03:13:08.057Z,33.00
2017-12-22T03:13:43.341Z,34.10
2017-12-22T03:14:18.757Z,36.50
2017-12-22T03:14:54.043Z,36.90
2017-12-22T03:15:29.369Z,35.80
2017-12-22T03:16:04.654Z,35.70
2017-12-22T03:16:39.865Z,34.80
2017-12-22T03:17:15.080Z,34.40
2017-12-22T03:17:50.388Z,33.00
2017-12-22T03:18:25.692Z,34.70
2017-12-22T03:19:01.175Z,33.10
2017-12-22T03:19:36.486Z,33.40
2017-12-22T03:20:11.784Z,34.50
2017-12-22T03:20:47.287Z,32.30
2017-12-22T03:21:22.379Z,31.80
2017-12-22T03:21:58.174Z,34.60
2017-12-22T03:22:33.653Z,35.00
2017-12-22T03:23:09.083Z,34.10
2017-12-22T03:23:44.489Z,34.60
2017-12-22T03:24:19.771Z,36.40
2017-12-22T03:24:55.583Z,37.10
2017-12-22T03:25:31.359Z,36.90
2017-12-22T03:26:06.767Z,36.70
2017-12-22T03:26:42.151Z,36.10
2017-12-22T03:27:17.466Z,35.00
2017-12-22T03:27:52.755Z,34.10
2017-12-22T03:28:28.423Z,35.10
2017-12-22T03:29:04.040Z,36.60
2017-12-22T03:29:39.626Z,36.50
2017-12-22T03:30:15.335Z,35.70
2017-12-22T03:30:50.520Z,35.90
2017-12-22T03:31:25.827Z,35.80
2017-12-22T03:32:01.023Z,36.60
2017-12-22T03:32:36.433Z,37.50
2017-12-22T03:33:11.841Z,36.10
2017-12-22T03:33:47.240Z,35.20
2017-12-22T03:34:22.658Z,35.00
2017-12-22T03:34:57.657Z,34.70
2017-12-22T03:35:33.272Z,36.00
2017-12-22T03:36:08.559Z,37.00
2017-12-22T03:36:43.969Z,36.70
2017-12-22T03:37:19.466Z,38.40
2017-12-22T03:37:55.162Z,37.10
2017-12-22T03:38:30.469Z,37.00
2017-12-22T03:39:05.875Z,36.40
2017-12-22T03:39:41.495Z,36.10
2017-12-22T03:40:16.780Z,36.50
2017-12-22T03:40:52.092Z,39.50
2017-12-22T03:41:27.286Z,39.20
2017-12-22T03:42:02.495Z,36.40
2017-12-22T03:42:37.773Z,36.70
2017-12-22T03:43:13.306Z,36.30
2017-12-22T03:43:48.784Z,36.60
2017-12-22T03:44:24.190Z,36.90
2017-12-22T03:44:59.795Z,37.40
2017-12-22T03:45:35.087Z,36.80
2017-12-22T03:46:10.591Z,36.10
2017-12-22T03:46:46.070Z,36.40
2017-12-22T03:47:21.678Z,36.60
2017-12-22T03:47:57.057Z,38.40
2017-12-22T03:48:32.291Z,36.90
2017-12-22T03:49:07.473Z,37.60
2017-12-22T03:49:42.585Z,37.60
2017-12-22T03:50:17.761Z,36.40
2017-12-22T03:50:52.968Z,35.30
2017-12-22T03:51:28.378Z,37.20
2017-12-22T03:52:03.562Z,37.40
2017-12-22T03:52:38.884Z,37.50
2017-12-22T03:53:14.162Z,36.60
2017-12-22T03:53:49.501Z,37.10
2017-12-22T03:54:24.885Z,37.40
2017-12-22T03:55:00.195Z,36.70
2017-12-22T03:55:35.385Z,37.10
2017-12-22T03:56:10.814Z,36.30
2017-12-22T03:56:46.037Z,35.60
2017-12-22T03:57:21.357Z,36.50
2017-12-22T03:57:56.548Z,34.80
2017-12-22T03:58:31.859Z,36.00
2017-12-22T03:59:07.163Z,37.80
2017-12-22T03:59:42.555Z,36.10
2017-12-22T04:00:17.672Z,35.40
2017-12-22T04:00:53.156Z,36.50
2017-12-22T04:01:28.465Z,34.70
2017-12-22T04:02:03.997Z,33.90
2017-12-22T04:02:39.567Z,33.40
2017-12-22T04:03:14.774Z,34.60
2017-12-22T04:03:50.192Z,34.20
2017-12-22T04:04:25.519Z,35.20
2017-12-22T04:05:01.107Z,34.50
2017-12-22T04:05:36.514Z,33.90
2017-12-22T04:06:11.809Z,35.30
2017-12-22T04:06:46.816Z,34.00
2017-12-22T04:07:22.335Z,32.70
2017-12-22T04:07:57.652Z,33.70
2017-12-22T04:08:32.787Z,35.00
2017-12-22T04:09:08.079Z,36.10
2017-12-22T04:09:43.582Z,35.30
2017-12-22T04:10:18.876Z,34.60
2017-12-22T04:10:54.087Z,35.40
2017-12-22T04:11:29.575Z,35.60
2017-12-22T04:12:04.981Z,36.00
2017-12-22T04:12:40.271Z,34.60
2017-12-22T04:13:15.619Z,34.40
2017-12-22T04:13:51.061Z,34.40
2017-12-22T04:14:26.151Z,35.10
2017-12-22T04:15:01.356Z,35.10
2017-12-22T04:15:36.736Z,34.90
2017-12-22T04:16:11.851Z,34.00
2017-12-22T04:16:47.123Z,33.10
2017-12-22T04:17:22.429Z,35.00
2017-12-22T04:17:57.809Z,35.10
2017-12-22T04:18:33.053Z,35.50
2017-12-22T04:19:08.262Z,36.40
2017-12-22T04:19:43.443Z,36.80
2017-12-22T04:20:18.749Z,37.40
2017-12-22T04:20:53.961Z,37.20
2017-12-22T04:21:29.379Z,36.40
2017-12-22T04:22:04.970Z,33.80
2017-12-22T04:22:40.474Z,34.20
2017-12-22T04:23:15.554Z,35.40
2017-12-22T04:23:50.802Z,34.90
2017-12-22T04:24:26.092Z,34.90
2017-12-22T04:25:01.392Z,36.40
2017-12-22T04:25:36.814Z,35.00
2017-12-22T04:26:12.317Z,33.40
2017-12-22T04:26:47.836Z,33.50
2017-12-22T04:27:23.311Z,34.40
2017-12-22T04:27:58.622Z,34.20
2017-12-22T04:28:33.911Z,34.60
2017-12-22T04:29:09.051Z,35.20
2017-12-22T04:29:44.445Z,35.70
2017-12-22T04:30:19.958Z,37.40
2017-12-22T04:30:55.279Z,36.70
2017-12-22T04:31:30.763Z,36.50
2017-12-22T04:32:05.998Z,36.50
2017-12-22T04:32:41.380Z,37.50
2017-12-22T04:33:16.890Z,37.10
2017-12-22T04:33:52.105Z,36.50
2017-12-22T04:34:27.619Z,36.30
2017-12-22T04:35:03.118Z,33.70
2017-12-22T04:35:38.933Z,35.30
2017-12-22T04:36:14.136Z,36.00
2017-12-22T04:36:49.527Z,36.40
2017-12-22T04:37:24.838Z,35.90
2017-12-22T04:38:00.122Z,34.90
2017-12-22T04:38:35.631Z,35.60
2017-12-22T04:39:10.947Z,36.00
2017-12-22T04:39:46.662Z,37.00
2017-12-22T04:40:21.750Z,36.20
2017-12-22T04:40:56.871Z,36.20
2017-12-22T04:41:32.187Z,35.90
2017-12-22T04:42:07.484Z,35.90
2017-12-22T04:42:42.501Z,36.80
2017-12-22T04:43:17.888Z,36.60
2017-12-22T04:43:53.026Z,37.10
2017-12-22T04:44:28.512Z,36.60
2017-12-22T04:45:04.225Z,35.20
2017-12-22T04:45:39.507Z,36.00
2017-12-22T04:46:14.916Z,36.40
2017-12-22T04:46:50.215Z,36.10
2017-12-22T04:47:25.629Z,36.30
2017-12-22T04:48:00.833Z,34.50
2017-12-22T04:48:36.226Z,35.70
2017-12-22T04:49:11.568Z,36.90
2017-12-22T04:49:47.059Z,36.00
2017-12-22T04:50:22.182Z,35.30
2017-12-22T04:50:57.396Z,36.00
2017-12-22T04:51:32.584Z,35.90
2017-12-22T04:52:08.273Z,36.00
2017-12-22T04:52:43.483Z,34.80
2017-12-22T04:53:19.005Z,35.00
2017-12-22T04:53:54.207Z,36.30
2017-12-22T04:54:29.251Z,36.80
2017-12-22T04:55:04.746Z,35.90
2017-12-22T04:55:40.264Z,35.80
2017-12-22T04:56:15.849Z,36.20
2017-12-22T04:56:51.062Z,35.90
2017-12-22T04:57:26.450Z,36.30
2017-12-22T04:58:01.661Z,36.90
2017-12-22T04:58:37.084Z,35.60
2017-12-22T04:59:12.692Z,35.80
2017-12-22T04:59:48.001Z,35.10
2017-12-22T05:00:23.386Z,37.30
2017-12-22T05:00:58.499Z,35.80
2017-12-22T05:01:34.045Z,35.90
2017-12-22T05:02:09.311Z,36.40
2017-12-22T05:02:44.696Z,36.00
2017-12-22T05:03:19.914Z,36.20
2017-12-22T05:03:55.138Z,36.90
2017-12-22T05:04:30.441Z,36.60
2017-12-22T05:05:05.949Z,35.40
2017-12-22T05:05:41.131Z,35.10
2017-12-22T05:06:16.547Z,36.80
2017-12-22T05:06:52.032Z,35.30
2017-12-22T05:07:27.546Z,36.20
2017-12-22T05:08:02.851Z,37.80
2017-12-22T05:08:38.057Z,34.90
2017-12-22T05:09:13.663Z,35.20
2017-12-22T05:09:49.168Z,36.80
2017-12-22T05:10:24.476Z,36.10
2017-12-22T05:10:59.771Z,34.60
2017-12-22T05:11:35.179Z,35.90
2017-12-22T05:12:10.466Z,37.30
2017-12-22T05:12:45.982Z,36.20
2017-12-22T05:13:21.173Z,36.50
2017-12-22T05:13:56.390Z,38.00
2017-12-22T05:14:31.599Z,37.70
2017-12-22T05:15:06.616Z,35.70
2017-12-22T05:15:41.730Z,36.50
2017-12-22T05:16:17.122Z,36.00
2017-12-22T05:16:52.434Z,36.90
2017-12-22T05:17:27.820Z,37.80
2017-12-22T05:18:03.030Z,36.60
2017-12-22T05:18:38.346Z,35.70
2017-12-22T05:19:13.762Z,36.10
2017-12-22T05:19:48.970Z,37.20
2017-12-22T05:20:23.990Z,37.30
2017-12-22T05:20:59.177Z,37.00
2017-12-22T05:21:34.703Z,38.20
2017-12-22T05:22:09.921Z,38.70
2017-12-22T05:22:45.612Z,39.30
2017-12-22T05:23:21.023Z,38.70
2017-12-22T05:23:56.307Z,38.10
2017-12-22T05:24:31.658Z,38.40
2017-12-22T05:25:07.046Z,41.30
2017-12-22T05:25:42.367Z,40.20
2017-12-22T05:26:17.947Z,37.30
2017-12-22T05:26:53.075Z,38.40
2017-12-22T05:27:28.797Z,40.00
2017-12-22T05:28:04.387Z,38.50
2017-12-22T05:28:39.810Z,34.90
2017-12-22T05:29:15.020Z,34.60
2017-12-22T05:29:50.362Z,35.60
2017-12-22T05:30:25.957Z,37.10
2017-12-22T05:31:01.176Z,37.40
2017-12-22T05:31:36.497Z,38.60
2017-12-22T05:32:11.617Z,39.90
2017-12-22T05:32:46.855Z,39.00
2017-12-22T05:33:22.250Z,39.10
2017-12-22T05:33:57.879Z,37.40
2017-12-22T05:34:33.901Z,38.50
2017-12-22T05:35:09.247Z,40.10
2017-12-22T05:35:44.747Z,38.90
2017-12-22T05:36:19.966Z,37.70
2017-12-22T05:36:55.286Z,36.80
2017-12-22T05:37:31.011Z,36.70
2017-12-22T05:38:06.337Z,38.10
2017-12-22T05:38:41.748Z,37.30
2017-12-22T05:39:17.255Z,37.50
2017-12-22T05:39:52.476Z,37.20
2017-12-22T05:40:27.577Z,36.50
2017-12-22T05:41:02.991Z,37.90
2017-12-22T05:41:38.318Z,37.60
2017-12-22T05:42:13.632Z,38.60
2017-12-22T05:42:49.244Z,37.80
2017-12-22T05:43:24.546Z,39.20
2017-12-22T05:44:00.068Z,39.90
2017-12-22T05:44:35.397Z,39.40
2017-12-22T05:45:10.792Z,38.90
2017-12-22T05:45:46.213Z,37.80
2017-12-22T05:46:21.692Z,39.90
2017-12-22T05:46:56.998Z,39.30
2017-12-22T05:47:32.212Z,36.80
2017-12-22T05:48:07.655Z,37.80
2017-12-22T05:48:43.064Z,37.70
2017-12-22T05:49:18.394Z,37.50
2017-12-22T05:49:53.657Z,37.10
2017-12-22T05:50:28.950Z,37.60
2017-12-22T05:51:04.365Z,35.70
2017-12-22T05:51:39.548Z,37.60
2017-12-22T05:52:15.078Z,39.40
2017-12-22T05:52:50.520Z,38.30
2017-12-22T05:53:26.146Z,38.30
2017-12-22T05:54:01.538Z,38.90
2017-12-22T05:54:36.856Z,39.90
2017-12-22T05:55:12.220Z,40.50
2017-12-22T05:55:47.527Z,38.20
2017-12-22T05:56:22.893Z,40.20
2017-12-22T05:56:58.263Z,39.00
2017-12-22T05:57:33.501Z,37.90
2017-12-22T05:58:08.995Z,37.10
2017-12-22T05:58:44.417Z,37.20
2017-12-22T05:59:19.747Z,37.10
2017-12-22T05:59:55.309Z,35.50
2017-12-22T06:00:30.630Z,36.10
2017-12-22T06:01:05.719Z,35.40
2017-12-22T06:01:41.532Z,36.30
2017-12-22T06:02:17.031Z,36.80
2017-12-22T06:02:52.157Z,37.40
2017-12-22T06:03:27.363Z,36.30
2017-12-22T06:04:02.584Z,35.70
2017-12-22T06:04:38.587Z,37.30
2017-12-22T06:05:13.927Z,37.70
2017-12-22T06:05:49.054Z,36.20
2017-12-22T06:06:24.453Z,37.30
2017-12-22T06:06:59.782Z,40.40
2017-12-22T06:07:34.992Z,40.40
2017-12-22T06:08:10.503Z,38.90
2017-12-22T06:08:45.805Z,38.10
2017-12-22T06:09:20.924Z,36.30
2017-12-22T06:09:56.532Z,35.80
2017-12-22T06:10:31.745Z,37.10
2017-12-22T06:11:06.932Z,37.30
2017-12-22T06:11:42.537Z,36.40
2017-12-22T06:12:17.742Z,37.30
2017-12-22T06:12:53.032Z,38.20
2017-12-22T06:13:28.462Z,37.50
2017-12-22T06:14:03.848Z,36.40
2017-12-22T06:14:39.358Z,34.10
2017-12-22T06:15:14.666Z,33.80
2017-12-22T06:15:50.073Z,35.20
2017-12-22T06:16:25.646Z,37.60
2017-12-22T06:17:01.259Z,36.80
2017-12-22T06:17:36.288Z,37.30
2017-12-22T06:18:11.769Z,37.40
2017-12-22T06:18:46.975Z,34.60
2017-12-22T06:19:22.264Z,35.50
2017-12-22T06:19:57.501Z,34.80
2017-12-22T06:20:32.889Z,33.80
2017-12-22T06:21:08.492Z,35.60
2017-12-22T06:21:43.778Z,37.10
2017-12-22T06:22:19.007Z,37.40
2017-12-22T06:22:54.785Z,35.50
2017-12-22T06:23:30.212Z,35.60
2017-12-22T06:24:05.414Z,36.70
2017-12-22T06:24:40.913Z,37.80
2017-12-22T06:25:16.353Z,38.60
2017-12-22T06:25:54.057Z,38.50
2017-12-22T06:26:29.376Z,38.70
2017-12-22T06:27:04.641Z,36.20
2017-12-22T06:27:39.949Z,36.80
2017-12-22T06:28:15.065Z,36.70
2017-12-22T06:28:50.359Z,36.50
2017-12-22T06:29:25.774Z,36.50
2017-12-22T06:30:01.062Z,38.10
2017-12-22T06:30:36.603Z,38.70
2017-12-22T06:31:11.984Z,37.90
2017-12-22T06:31:47.192Z,39.80
2017-12-22T06:32:22.373Z,38.20
2017-12-22T06:32:57.698Z,37.60
2017-12-22T06:33:33.116Z,37.80
2017-12-22T06:34:08.508Z,35.30
2017-12-22T06:34:43.723Z,35.80
2017-12-22T06:35:19.322Z,36.80
2017-12-22T06:35:54.633Z,38.50
2017-12-22T06:36:30.121Z,36.80
2017-12-22T06:37:05.336Z,39.00
2017-12-22T06:37:40.523Z,40.00
2017-12-22T06:38:15.830Z,39.80
2017-12-22T06:38:51.310Z,40.50
2017-12-22T06:39:26.615Z,38.00
2017-12-22T06:40:02.033Z,38.90
2017-12-22T06:40:37.553Z,41.50
2017-12-22T06:41:13.091Z,41.80
2017-12-22T06:41:48.260Z,40.60
2017-12-22T06:42:23.375Z,39.70
2017-12-22T06:42:58.761Z,40.20
2017-12-22T06:43:33.870Z,41.00
2017-12-22T06:44:09.150Z,42.10
2017-12-22T06:44:44.460Z,41.00
2017-12-22T06:45:19.800Z,42.00
2017-12-22T06:45:55.094Z,40.40
2017-12-22T06:46:30.502Z,39.90
2017-12-22T06:47:05.784Z,42.00
2017-12-22T06:47:40.996Z,43.50
2017-12-22T06:48:16.286Z,41.90
2017-12-22T06:48:51.691Z,43.20
2017-12-22T06:49:26.873Z,42.50
2017-12-22T06:50:02.095Z,42.10
2017-12-22T06:50:38.129Z,42.90
2017-12-22T06:51:13.314Z,41.20
2017-12-22T06:51:48.520Z,40.10
2017-12-22T06:52:23.803Z,39.60
2017-12-22T06:52:59.217Z,41.30
2017-12-22T06:53:34.403Z,41.50
2017-12-22T06:54:10.011Z,41.70
2017-12-22T06:54:45.505Z,42.00
2017-12-22T06:55:20.810Z,38.60
2017-12-22T06:55:56.011Z,40.60
2017-12-22T06:56:31.225Z,41.80
2017-12-22T06:57:06.443Z,43.30
2017-12-22T06:57:41.628Z,41.60
2017-12-22T06:58:16.846Z,40.30
2017-12-22T06:58:52.021Z,41.00
2017-12-22T06:59:27.741Z,40.70
2017-12-22T07:00:03.321Z,40.80
2017-12-22T07:00:39.446Z,40.00
2017-12-22T07:01:14.551Z,40.00
2017-12-22T07:01:50.467Z,42.50
2017-12-22T07:02:25.782Z,42.50
2017-12-22T07:03:01.060Z,44.60
2017-12-22T07:03:36.474Z,45.10
2017-12-22T07:04:11.849Z,44.10
2017-12-22T07:04:47.255Z,40.30
2017-12-22T07:05:22.745Z,37.70
2017-12-22T07:05:57.983Z,44.80
2017-12-22T07:06:33.271Z,45.20
2017-12-22T07:07:08.691Z,44.60
2017-12-22T07:07:46.001Z,40.70
2017-12-22T07:08:21.482Z,39.60
2017-12-22T07:08:56.991Z,40.40
2017-12-22T07:09:32.185Z,38.50
2017-12-22T07:10:07.494Z,41.00
2017-12-22T07:10:42.805Z,43.10
2017-12-22T07:11:18.605Z,41.80
2017-12-22T07:11:53.897Z,42.30
2017-12-22T07:12:29.598Z,43.20
2017-12-22T07:13:04.815Z,42.80
2017-12-22T07:13:41.204Z,43.20
2017-12-22T07:14:16.516Z,42.50
2017-12-22T07:14:51.912Z,41.70
2017-12-22T07:15:27.123Z,40.70
2017-12-22T07:16:02.733Z,42.10
2017-12-22T07:16:38.049Z,42.20
2017-12-22T07:17:13.835Z,41.70
2017-12-22T07:17:49.235Z,41.20
2017-12-22T07:18:24.547Z,39.80
2017-12-22T07:19:00.033Z,42.20
2017-12-22T07:19:35.543Z,43.50
2017-12-22T07:20:11.326Z,42.20
2017-12-22T07:20:47.056Z,43.30
2017-12-22T07:21:22.150Z,45.00
2017-12-22T07:21:57.364Z,44.00
2017-12-22T07:22:32.570Z,41.90
2017-12-22T07:23:07.786Z,45.60
2017-12-22T07:23:43.393Z,47.50
2017-12-22T07:24:18.484Z,44.30
2017-12-22T07:24:53.812Z,44.90
2017-12-22T07:25:29.383Z,44.90
2017-12-22T07:26:04.717Z,47.80
2017-12-22T07:26:40.409Z,47.30
2017-12-22T07:27:15.918Z,45.20
2017-12-22T07:27:51.597Z,47.80
2017-12-22T07:28:27.303Z,48.20
2017-12-22T07:29:02.678Z,48.10
2017-12-22T07:29:38.289Z,50.00
2017-12-22T07:30:13.802Z,48.40
2017-12-22T07:30:49.116Z,46.40
2017-12-22T07:31:24.825Z,48.10
2017-12-22T07:32:00.204Z,48.60
2017-12-22T07:32:35.612Z,49.40
2017-12-22T07:33:10.791Z,47.20
2017-12-22T07:33:46.394Z,47.10
2017-12-22T07:34:22.076Z,50.00
2017-12-22T07:34:57.678Z,51.80
2017-12-22T07:35:33.305Z,51.30